Time;durP1;ratioP1;P1;durP2;ratioP2;P2;SDS_P1;SDS_P2;PMS_P1;PMS_P2;Temp;Humidity;BMP_temperature;BMP_pressure;BME280_temperature;BME280_humidity;BME280_pressure;Samples;Min_cycle;Max_cycle;Signal;HPM_P1;HPM_P2
2021/12/03 00:02:16;;;;;;;;;;;;;;;;;;5024213;28;19926;-67
2021/12/03 00:04:43;;;;;;;;;;;;;;;;;;5026284;28;19925;-67
2021/12/03 00:07:10;;;;;;;;;;;;;;;;;;5026523;28;19940;-67
2021/12/03 00:09:37;;;;;;;;;;;;;;;;;;5026509;28;19925;-67
2021/12/03 00:12:04;;;;;;;;;;;;;;;;;;5022115;28;19948;-67
2021/12/03 00:14:31;;;;;;;;;;;;;;;;;;5027387;28;19941;-67
2021/12/03 00:16:58;;;;;;;;;;;;;;;;;;5023344;28;20036;-66
2021/12/03 00:19:25;;;;;;;;;;;;;;;;;;5025846;28;19932;-67
2021/12/03 00:21:52;;;;;;;;;;;;;;;;;;5030004;28;19925;-67
2021/12/03 00:24:19;;;;;;;;;;;;;;;;;;5024290;28;19935;-67
2021/12/03 00:26:46;;;;;;;;;;;;;;;;;;5025968;28;20337;-67
2021/12/03 00:29:13;;;;;;;;;;;;;;;;;;5029520;28;19925;-67
2021/12/03 00:31:40;;;;;;;;;;;;;;;;;;5021519;28;20456;-67
2021/12/03 00:34:07;;;;;;;;;;;;;;;;;;5038670;28;19931;-67
2021/12/03 00:36:34;;;;;;;;;;;;;;;;;;5045578;28;19932;-66
2021/12/03 00:39:01;;;;;;;;;;;;;;;;;;5043097;28;19925;-67
2021/12/03 00:41:31;;;;;;;;;;;;;;;;;;5043899;28;20387;-68
2021/12/03 00:43:58;;;;;;;;;;;;;;;;;;5041731;28;19968;-68
2021/12/03 00:46:25;;;;;;;;;;;;;;;;;;5040021;28;19968;-67
2021/12/03 00:48:52;;;;;;;;;;;;;;;;;;5043978;28;19924;-67
2021/12/03 00:51:19;;;;;;;;;;;;;;;;;;5047893;28;19925;-69
2021/12/03 00:53:46;;;;;;;;;;;;;;;;;;5040936;28;19925;-67
2021/12/03 00:56:13;;;;;;;;;;;;;;;;;;5043406;28;20004;-68
2021/12/03 00:58:40;;;;;;;;;;;;;;;;;;5038604;28;19925;-66
2021/12/03 01:01:07;;;;;;;;;;;;;;;;;;5043477;28;20381;-66
2021/12/03 01:03:34;;;;;;;;;;;;;;;;;;5046065;28;19932;-67
2021/12/03 01:06:01;;;;;;;;;;;;;;;;;;5034864;28;20048;-67
2021/12/03 01:08:28;;;;;;;;;;;;;;;;;;5038393;28;19932;-67
2021/12/03 01:10:55;;;;;;;;;;;;;;;;;;5046066;28;20299;-67
2021/12/03 01:13:22;;;;;;;;;;;;;;;;;;5042721;28;19929;-68
2021/12/03 01:15:49;;;;;;;;;;;;;;;;;;5039764;28;19925;-67
2021/12/03 01:18:16;;;;;;;;;;;;;;;;;;5044233;28;20023;-67
2021/12/03 01:20:43;;;;;;;;;;;;;;;;;;5044345;28;20001;-69
2021/12/03 01:23:11;;;;;;;;;;;;;;;;;;5040703;28;20391;-65
2021/12/03 01:25:38;;;;;;;;;;;;;;;;;;5040828;28;20012;-66
2021/12/03 01:28:04;;;;;;;;;;;;;;;;;;5040905;28;19933;-66
2021/12/03 01:30:31;;;;;;;;;;;;;;;;;;5046921;28;19929;-67
2021/12/03 01:32:58;;;;;;;;;;;;;;;;;;5042704;28;20312;-67
2021/12/03 01:35:25;;;;;;;;;;;;;;;;;;5043875;28;19932;-67
2021/12/03 01:37:52;;;;;;;;;;;;;;;;;;5040953;28;19932;-66
2021/12/03 01:40:19;;;;;;;;;;;;;;;;;;5046814;28;20405;-66
2021/12/03 01:42:46;;;;;;;;;;;;;;;;;;5045249;28;19943;-66
2021/12/03 01:45:13;;;;;;;;;;;;;;;;;;5049411;28;19925;-66
2021/12/03 01:47:40;;;;;;;;;;;;;;;;;;5049482;28;19925;-67
2021/12/03 01:50:07;;;;;;;;;;;;;;;;;;5043922;28;20391;-66
2021/12/03 01:52:34;;;;;;;;;;;;;;;;;;5040217;28;19932;-66
2021/12/03 01:55:02;;;;;;;;;;;;;;;;;;5043226;28;19930;-67
2021/12/03 01:57:29;;;;;;;;;;;;;;;;;;5038391;28;19925;-68
2021/12/03 01:59:56;;;;;;;;;;;;;;;;;;5044811;28;19946;-67
2021/12/03 02:02:23;;;;;;;;;;;;;;;;;;5041113;28;19931;-67
2021/12/03 02:04:50;;;;;;;;;;;;;;;;;;5047344;28;19935;-67
2021/12/03 02:07:17;;;;;;;;;;;;;;;;;;5042846;28;19925;-67
2021/12/03 02:09:44;;;;;;;;;;;;;;;;;;5046005;28;19925;-66
2021/12/03 02:12:11;;;;;;;;;;;;;;;;;;5040124;28;20470;-66
2021/12/03 02:14:38;;;;;;;;;;;;;;;;;;5045196;28;19932;-67
2021/12/03 02:17:05;;;;;;;;;;;;;;;;;;5038599;28;19925;-66
2021/12/03 02:19:32;;;;;;;;;;;;;;;;;;5037463;28;19929;-68
2021/12/03 02:21:59;;;;;;;;;;;;;;;;;;5043777;28;19931;-67
2021/12/03 02:24:26;;;;;;;;;;;;;;;;;;5045238;28;19924;-66
2021/12/03 02:26:53;;;;;;;;;;;;;;;;;;5048052;28;19995;-67
2021/12/03 02:29:20;;;;;;;;;;;;;;;;;;5041878;28;19925;-66
2021/12/03 02:31:47;;;;;;;;;;;;;;;;;;5052571;28;19924;-67
2021/12/03 02:34:13;;;;;;;;;;;;;;;;;;5042865;28;20608;-67
2021/12/03 02:36:40;;;;;;;;;;;;;;;;;;5045866;28;19924;-67
2021/12/03 02:39:07;;;;;;;;;;;;;;;;;;5051151;28;19924;-67
2021/12/03 02:41:34;;;;;;;;;;;;;;;;;;5046513;28;19925;-66
2021/12/03 02:44:01;;;;;;;;;;;;;;;;;;5043490;28;20284;-67
2021/12/03 02:46:28;;;;;;;;;;;;;;;;;;5048934;28;20016;-66
2021/12/03 02:48:55;;;;;;;;;;;;;;;;;;5049159;28;19947;-66
2021/12/03 02:51:22;;;;;;;;;;;;;;;;;;5045349;28;19932;-67
2021/12/03 02:53:49;;;;;;;;;;;;;;;;;;5049805;28;20346;-66
2021/12/03 02:56:16;;;;;;;;;;;;;;;;;;5048045;28;20316;-68
2021/12/03 02:58:43;;;;;;;;;;;;;;;;;;5040864;28;20035;-67
2021/12/03 03:01:10;;;;;;;;;;;;;;;;;;5043454;28;19925;-67
2021/12/03 03:03:37;;;;;;;;;;;;;;;;;;5048614;28;19933;-67
2021/12/03 03:06:04;;;;;;;;;;;;;;;;;;5049346;28;20436;-67
2021/12/03 03:08:31;;;;;;;;;;;;;;;;;;5045435;28;19940;-67
2021/12/03 03:10:58;;;;;;;;;;;;;;;;;;5045564;28;19925;-67
2021/12/03 03:13:25;;;;;;;;;;;;;;;;;;5048854;28;20042;-69
2021/12/03 03:15:52;;;;;;;;;;;;;;;;;;5048387;28;20311;-66
2021/12/03 03:18:19;;;;;;;;;;;;;;;;;;5043008;28;19932;-66
2021/12/03 03:20:46;;;;;;;;;;;;;;;;;;5038293;28;19925;-67
2021/12/03 03:23:13;;;;;;;;;;;;;;;;;;5053466;28;19924;-67
2021/12/03 03:25:40;;;;;;;;;;;;;;;;;;5047126;28;19925;-66
2021/12/03 03:28:07;;;;;;;;;;;;;;;;;;5042336;28;20418;-66
2021/12/03 03:30:34;;;;;;;;;;;;;;;;;;5050190;28;20364;-66
2021/12/03 03:33:01;;;;;;;;;;;;;;;;;;5045316;28;20295;-66
2021/12/03 03:35:28;;;;;;;;;;;;;;;;;;5039372;28;19957;-66
2021/12/03 03:37:55;;;;;;;;;;;;;;;;;;5039256;28;20023;-67
2021/12/03 03:40:22;;;;;;;;;;;;;;;;;;5043143;28;19932;-66
2021/12/03 03:42:49;;;;;;;;;;;;;;;;;;5042517;28;20411;-66
2021/12/03 03:45:16;;;;;;;;;;;;;;;;;;5039713;28;20016;-66
2021/12/03 03:47:43;;;;;;;;;;;;;;;;;;5038021;28;20028;-66
2021/12/03 03:50:10;;;;;;;;;;;;;;;;;;5041447;28;20300;-66
2021/12/03 03:52:39;;;;;;;;;;;;;;;;;;5039860;28;19924;-66
2021/12/03 03:55:06;;;;;;;;;;;;;;;;;;5043704;28;19925;-68
2021/12/03 03:57:32;;;;;;;;;;;;;;;;;;5033713;28;19971;-66
2021/12/03 03:59:59;;;;;;;;;;;;;;;;;;5044758;28;19925;-66
2021/12/03 04:02:26;;;;;;;;;;;;;;;;;;5043445;28;19925;-68
2021/12/03 04:04:53;;;;;;;;;;;;;;;;;;5041510;28;19925;-66
2021/12/03 04:07:20;;;;;;;;;;;;;;;;;;5041602;28;20009;-66
2021/12/03 04:09:47;;;;;;;;;;;;;;;;;;5042655;28;19925;-66
2021/12/03 04:12:14;;;;;;;;;;;;;;;;;;5047943;28;19924;-65
2021/12/03 04:14:41;;;;;;;;;;;;;;;;;;5046558;28;19925;-66
2021/12/03 04:17:08;;;;;;;;;;;;;;;;;;5038072;28;19932;-66
2021/12/03 04:19:36;;;;;;;;;;;;;;;;;;5044019;28;19925;-66
2021/12/03 04:22:03;;;;;;;;;;;;;;;;;;5047448;28;19931;-66
2021/12/03 04:24:29;;;;;;;;;;;;;;;;;;5045374;28;19925;-66
2021/12/03 04:26:56;;;;;;;;;;;;;;;;;;5042792;28;20393;-66
2021/12/03 04:29:23;;;;;;;;;;;;;;;;;;5040609;28;19929;-66
2021/12/03 04:31:50;;;;;;;;;;;;;;;;;;5044608;28;19925;-66
2021/12/03 04:34:17;;;;;;;;;;;;;;;;;;5045915;28;19926;-66
2021/12/03 04:36:44;;;;;;;;;;;;;;;;;;5043685;28;19924;-67
2021/12/03 04:39:12;;;;;;;;;;;;;;;;;;5038331;28;19925;-66
2021/12/03 04:41:39;;;;;;;;;;;;;;;;;;5044823;28;19987;-66
2021/12/03 04:44:06;;;;;;;;;;;;;;;;;;5035886;28;19925;-66
2021/12/03 04:46:33;;;;;;;;;;;;;;;;;;5044684;28;20440;-66
2021/12/03 04:49:00;;;;;;;;;;;;;;;;;;5045716;28;19929;-66
2021/12/03 04:51:27;;;;;;;;;;;;;;;;;;5038124;28;19932;-65
2021/12/03 04:53:54;;;;;;;;;;;;;;;;;;5043663;28;19961;-67
2021/12/03 04:56:20;;;;;;;;;;;;;;;;;;5044858;28;19924;-65
2021/12/03 04:58:47;;;;;;;;;;;;;;;;;;5047338;28;20011;-65
2021/12/03 05:01:14;;;;;;;;;;;;;;;;;;5044616;28;19935;-67
2021/12/03 05:03:41;;;;;;;;;;;;;;;;;;5046591;28;19935;-67
2021/12/03 05:06:14;;;;;;;;;;;;;;;;;;5043684;28;19925;-65
2021/12/03 05:08:41;;;;;;;;;;;;;;;;;;5046545;28;19931;-66
2021/12/03 05:11:08;;;;;;;;;;;;;;;;;;5043670;28;19925;-65
2021/12/03 05:13:35;;;;;;;;;;;;;;;;;;5043981;28;19933;-67
2021/12/03 05:16:02;;;;;;;;;;;;;;;;;;5048374;28;19929;-67
2021/12/03 05:18:29;;;;;;;;;;;;;;;;;;5045189;28;19925;-68
2021/12/03 05:20:56;;;;;;;;;;;;;;;;;;5046751;28;19925;-67
2021/12/03 05:23:23;;;;;;;;;;;;;;;;;;5041704;28;20400;-67
2021/12/03 05:25:50;;;;;;;;;;;;;;;;;;5042868;28;20312;-67
2021/12/03 05:28:17;;;;;;;;;;;;;;;;;;5047540;28;19931;-67
2021/12/03 05:30:44;;;;;;;;;;;;;;;;;;5046482;28;19932;-67
2021/12/03 05:33:10;;;;;;;;;;;;;;;;;;5058929;22;19995;-68
2021/12/03 05:35:37;;;;;;;;;;;;;;;;;;5027571;28;19936;-67
2021/12/03 05:38:04;;;;;;;;;;;;;;;;;;5025604;28;19926;-69
2021/12/03 05:40:31;;;;;;;;;;;;;;;;;;5027029;28;19931;-68
2021/12/03 05:42:58;;;;;;;;;;;;;;;;;;5025796;28;19925;-67
2021/12/03 05:45:25;;;;;;;;;;;;;;;;;;5024810;28;19926;-68
2021/12/03 05:47:52;;;;;;;;;;;;;;;;;;5011807;28;19926;-68
2021/12/03 05:50:19;;;;;;;;;;;;;;;;;;5012229;28;19926;-68
2021/12/03 05:52:47;;;;;;;;;;;;;;;;;;5009811;28;19926;-67
2021/12/03 05:55:14;;;;;;;;;;;;;;;;;;5007400;28;20008;-67
2021/12/03 05:57:41;;;;;;;;;;;;;;;;;;5012438;28;20011;-69
2021/12/03 06:00:08;;;;;;;;;;;;;;;;;;5015148;28;19925;-67
2021/12/03 06:02:35;;;;;;;;;;;;;;;;;;5024914;28;19933;-67
2021/12/03 06:05:02;;;;;;;;;;;;;;;;;;5018507;28;19926;-68
2021/12/03 06:07:29;;;;;;;;;;;;;;;;;;5013458;28;19936;-68
2021/12/03 06:09:56;;;;;;;;;;;;;;;;;;5022138;28;20377;-67
2021/12/03 06:12:23;;;;;;;;;;;;;;;;;;5014990;28;19948;-67
2021/12/03 06:14:50;;;;;;;;;;;;;;;;;;5018888;28;19932;-68
2021/12/03 06:17:17;;;;;;;;;;;;;;;;;;5011869;28;19988;-67
2021/12/03 06:19:44;;;;;;;;;;;;;;;;;;5011334;28;20029;-68
2021/12/03 06:22:11;;;;;;;;;;;;;;;;;;5020078;28;20041;-67
2021/12/03 06:24:38;;;;;;;;;;;;;;;;;;5023809;28;19936;-69
2021/12/03 06:27:05;;;;;;;;;;;;;;;;;;5018056;28;19932;-67
2021/12/03 06:29:32;;;;;;;;;;;;;;;;;;5012492;28;20023;-67
2021/12/03 06:31:59;;;;;;;;;;;;;;;;;;5019521;28;19925;-66
2021/12/03 06:34:26;;;;;;;;;;;;;;;;;;5013364;28;19925;-66
2021/12/03 06:36:53;;;;;;;;;;;;;;;;;;5005445;28;19932;-67
2021/12/03 06:39:20;;;;;;;;;;;;;;;;;;5009998;28;19949;-66
2021/12/03 06:41:47;;;;;;;;;;;;;;;;;;5015644;28;19925;-66
2021/12/03 06:44:14;;;;;;;;;;;;;;;;;;5013442;28;19925;-67
2021/12/03 06:46:41;;;;;;;;;;;;;;;;;;5021702;28;19925;-67
2021/12/03 06:49:08;;;;;;;;;;;;;;;;;;5012550;28;20389;-66
2021/12/03 06:51:40;;;;;;;;;;;;;;;;;;5011332;28;19925;-68
2021/12/03 06:54:09;;;;;;;;;;;;;;;;;;5011952;28;19925;-67
2021/12/03 06:56:47;;;;;;;;;;;;;;;;;;5012008;28;19926;-66
2021/12/03 06:59:14;;;;;;;;;;;;;;;;;;5015035;28;20001;-66
2021/12/03 07:01:41;;;;;;;;;;;;;;;;;;5008599;28;19933;-66
2021/12/03 07:04:08;;;;;;;;;;;;;;;;;;5001424;28;19936;-66
2021/12/03 07:06:35;;;;;;;;;;;;;;;;;;5010194;28;19993;-67
2021/12/03 07:09:02;;;;;;;;;;;;;;;;;;5013318;28;20012;-68
2021/12/03 07:11:29;;;;;;;;;;;;;;;;;;5012905;28;20298;-67
2021/12/03 07:13:56;;;;;;;;;;;;;;;;;;5015742;28;19948;-67
2021/12/03 07:16:23;;;;;;;;;;;;;;;;;;5007515;28;20468;-67
2021/12/03 07:18:50;;;;;;;;;;;;;;;;;;5011460;28;19948;-66
2021/12/03 07:21:17;;;;;;;;;;;;;;;;;;5014404;28;19933;-67
2021/12/03 07:23:44;;;;;;;;;;;;;;;;;;5015652;28;20001;-67
2021/12/03 07:26:11;;;;;;;;;;;;;;;;;;5019478;28;20028;-66
2021/12/03 07:28:38;;;;;;;;;;;;;;;;;;5019288;28;20008;-67
2021/12/03 07:31:05;;;;;;;;;;;;;;;;;;5011874;28;19926;-66
2021/12/03 07:33:32;;;;;;;;;;;;;;;;;;5008934;28;20304;-66
2021/12/03 07:35:59;;;;;;;;;;;;;;;;;;5011787;28;19925;-67
2021/12/03 07:38:26;;;;;;;;;;;;;;;;;;5010379;28;19925;-68
2021/12/03 07:40:53;;;;;;;;;;;;;;;;;;5003170;28;19925;-67
2021/12/03 07:43:20;;;;;;;;;;;;;;;;;;5010444;28;20412;-66
2021/12/03 07:45:47;;;;;;;;;;;;;;;;;;5012701;28;19932;-66
2021/12/03 07:48:14;;;;;;;;;;;;;;;;;;5010187;28;19932;-66
2021/12/03 07:50:41;;;;;;;;;;;;;;;;;;5008527;28;19926;-66
2021/12/03 07:53:08;;;;;;;;;;;;;;;;;;5006983;28;19929;-67
2021/12/03 07:55:35;;;;;;;;;;;;;;;;;;5010003;28;20007;-66
2021/12/03 07:58:03;;;;;;;;;;;;;;;;;;5007157;28;19930;-67
2021/12/03 08:00:30;;;;;;;;;;;;;;;;;;5006122;28;19999;-67
2021/12/03 08:02:57;;;;;;;;;;;;;;;;;;5008663;28;19933;-66
2021/12/03 08:05:24;;;;;;;;;;;;;;;;;;5012347;28;19925;-66
2021/12/03 08:07:51;;;;;;;;;;;;;;;;;;5005435;28;19937;-68
2021/12/03 08:10:18;;;;;;;;;;;;;;;;;;5011913;28;20386;-66
2021/12/03 08:12:45;;;;;;;;;;;;;;;;;;5004635;28;20318;-67
2021/12/03 08:15:12;;;;;;;;;;;;;;;;;;5011075;28;19926;-66
2021/12/03 08:17:40;;;;;;;;;;;;;;;;;;5017113;28;19926;-67
2021/12/03 08:20:07;;;;;;;;;;;;;;;;;;5009223;28;20406;-66
2021/12/03 08:22:34;;;;;;;;;;;;;;;;;;5011068;28;19925;-67
2021/12/03 08:25:00;;;;;;;;;;;;;;;;;;5010515;28;19933;-66
2021/12/03 08:27:27;;;;;;;;;;;;;;;;;;5011084;28;19925;-67
2021/12/03 08:29:54;;;;;;;;;;;;;;;;;;5009442;28;19988;-66
2021/12/03 08:32:21;;;;;;;;;;;;;;;;;;5010861;28;19925;-66
2021/12/03 08:34:48;;;;;;;;;;;;;;;;;;5016363;28;19929;-66
2021/12/03 08:37:15;;;;;;;;;;;;;;;;;;5012758;28;19925;-68
2021/12/03 08:39:42;;;;;;;;;;;;;;;;;;5000612;28;19942;-67
2021/12/03 08:42:10;;;;;;;;;;;;;;;;;;5006269;28;19930;-67
2021/12/03 08:44:37;;;;;;;;;;;;;;;;;;5009054;28;20016;-66
2021/12/03 08:47:06;;;;;;;;;;;;;;;;;;5012321;28;19932;-65
2021/12/03 08:49:35;;;;;;;;;;;;;;;;;;5006813;28;19933;-66
2021/12/03 08:54:51;;;;;;;;;;;;;;;;;;5004418;28;19921;-68
2021/12/03 08:57:18;;;;;;;;;;;;;;;;;;5009124;28;19929;-65
2021/12/03 08:59:46;;;;;;;;;;;;;;;;;;5011920;28;19930;-67
2021/12/03 09:02:13;;;;;;;;;;;;;;;;;;5006232;28;19937;-67
2021/12/03 09:04:40;;;;;;;;;;;;;;;;;;5009010;28;19926;-68
2021/12/03 09:07:07;;;;;;;;;;;;;;;;;;5010061;28;19929;-68
2021/12/03 09:09:34;;;;;;;;;;;;;;;;;;5009877;28;19925;-68
2021/12/03 09:12:01;;;;;;;;;;;;;;;;;;5020887;28;19925;-69
2021/12/03 09:14:33;;;;;;;;;;;;;;;;;;5008881;28;19929;-68
2021/12/03 09:17:07;;;;;;;;;;;;;;;;;;5013429;28;19977;-66
2021/12/03 09:19:37;;;;;;;;;;;;;;;;;;5010675;28;19933;-67
2021/12/03 09:22:05;;;;;;;;;;;;;;;;;;5012150;28;19965;-67
2021/12/03 09:24:35;;;;;;;;;;;;;;;;;;5012724;28;19980;-68
2021/12/03 09:27:02;;;;;;;;;;;;;;;;;;5008870;28;19976;-67
2021/12/03 09:29:31;;;;;;;;;;;;;;;;;;5016120;28;19935;-67
2021/12/03 09:31:59;;;;;;;;;;;;;;;;;;5012829;28;19936;-67
2021/12/03 09:34:28;;;;;;;;;;;;;;;;;;5007664;28;19995;-67
2021/12/03 09:36:55;;;;;;;;;;;;;;;;;;5005359;28;19926;-67
2021/12/03 09:39:23;;;;;;;;;;;;;;;;;;5006278;28;19925;-67
2021/12/03 09:41:50;;;;;;;;;;;;;;;;;;5007820;28;19961;-67
2021/12/03 09:44:17;;;;;;;;;;;;;;;;;;5008921;28;19976;-67
2021/12/03 09:46:44;;;;;;;;;;;;;;;;;;5011848;28;20376;-67
2021/12/03 09:52:03;;;;;;;;;;;;;;;;;;5010247;28;19921;-67
2021/12/03 09:54:36;;;;;;;;;;;;;;;;;;5012783;28;19932;-67
2021/12/03 09:57:06;;;;;;;;;;;;;;;;;;5015186;28;19972;-67
2021/12/03 10:13:16;;;;;;;;;;;;;;;;;;5006547;28;19984;-68
2021/12/03 10:15:43;;;;;;;;;;;;;;;;;;5005021;28;20029;-68
2021/12/03 10:18:16;;;;;;;;;;;;;;;;;;5010295;28;19929;-68
2021/12/03 10:20:48;;;;;;;;;;;;;;;;;;5008205;28;19926;-68
2021/12/03 10:28:59;;;;;;;;;;;;;;;;;;5010023;28;19920;-68
2021/12/03 10:34:34;;;;;;;;;;;;;;;;;;5008675;28;19924;-67
2021/12/03 10:40:03;;;;;;;;;;;;;;;;;;4930936;29;19930;-68
2021/12/03 10:42:41;;;;;;;;;;;;;;;;;;4993989;28;20029;-68
2021/12/03 10:45:32;;;;;;;;;;;;;;;;;;5011795;28;19929;-68
2021/12/03 10:50:58;;;;;;;;;;;;;;;;;;5007539;28;19933;-70
2021/12/03 10:53:32;;;;;;;;;;;;;;;;;;5010278;28;20012;-68
2021/12/03 10:56:20;;;;;;;;;;;;;;;;;;5008049;28;20028;-68
2021/12/03 10:59:07;;;;;;;;;;;;;;;;;;5007346;28;19952;-67
2021/12/03 11:07:34;;;;;;;;;;;;;;;;;;4994410;28;19922;-67
2021/12/03 11:18:43;;;;;;;;;;;;;;;;;;4984875;28;19921;-67
2021/12/03 11:41:05;;;;;;;;;;;;;;;;;;5011230;28;20294;-69
2021/12/03 12:45:10;;;;;;;;;;;;;;;;;;5010962;28;19925;-66
2021/12/03 13:18:11;;;;;;;;;;;;;;;;;;5009503;28;19921;-66
2021/12/03 14:02:32;;;;;;;;;;;;;;;;;;5007462;28;19921;-66
2021/12/03 14:05:15;;;;;;;;;;;;;;;;;;5010898;28;19932;-67
2021/12/03 14:38:19;;;;;;;;;;;;;;;;;;5012083;28;20370;-69
2021/12/03 14:43:34;;;;;;;;;;;;;;;;;;5010054;28;19979;-69
2021/12/03 14:46:08;;;;;;;;;;;;;;;;;;5015344;28;20020;-68
2021/12/03 14:48:41;;;;;;;;;;;;;;;;;;5010823;28;19948;-68
2021/12/03 14:56:35;;;;;;;;;;;;;;;;;;5012783;28;19922;-69
2021/12/03 14:59:02;;;;;;;;;;;;;;;;;;5010754;28;20030;-68
2021/12/03 15:01:37;;;;;;;;;;;;;;;;;;5013915;28;19930;-68
2021/12/03 15:04:18;;;;;;;;;;;;;;;;;;5014385;28;19925;-68
2021/12/03 15:06:50;;;;;;;;;;;;;;;;;;5008146;28;19930;-67
2021/12/03 15:09:20;;;;;;;;;;;;;;;;;;5013148;28;19992;-68
2021/12/03 15:12:12;;;;;;;;;;;;;;;;;;5010221;28;19929;-70
2021/12/03 15:23:16;;;;;;;;;;;;;;;;;;4957590;28;19974;-67
2021/12/03 15:25:55;;;;;;;;;;;;;;;;;;5017853;28;19925;-70
2021/12/03 15:31:20;;;;;;;;;;;;;;;;;;5018585;28;19936;-69
2021/12/03 15:33:52;;;;;;;;;;;;;;;;;;5017582;28;19933;-68
2021/12/03 15:36:25;;;;;;;;;;;;;;;;;;5014692;28;19934;-67
2021/12/03 15:58:21;;;;;;;;;;;;;;;;;;5010564;28;19922;-66
2021/12/03 16:03:42;;;;;;;;;;;;;;;;;;5011010;28;20404;-65
2021/12/03 16:09:14;;;;;;;;;;;;;;;;;;4930987;29;20631;-67
2021/12/03 16:11:46;;;;;;;;;;;;;;;;;;4997613;28;19925;-68
2021/12/03 16:23:08;;;;;;;;;;;;;;;;;;5003599;28;19926;-67
2021/12/03 16:26:01;;;;;;;;;;;;;;;;;;5002944;28;19926;-68
2021/12/03 16:53:23;;;;;;;;;;;;;;;;;;5085063;27;19927;-69
2021/12/03 16:55:59;;;;;;;;;;;;;;;;;;5066841;28;19924;-67
2021/12/03 16:58:26;;;;;;;;;;;;;;;;;;5066594;28;20304;-67
2021/12/03 17:01:00;;;;;;;;;;;;;;;;;;5067380;28;19949;-67
2021/12/03 17:03:32;;;;;;;;;;;;;;;;;;5064308;28;20547;-68
2021/12/03 17:11:57;;;;;;;;;;;;;;;;;;5013324;28;19943;-68
2021/12/03 17:14:46;;;;;;;;;;;;;;;;;;5049812;28;20304;-68
2021/12/03 17:50:57;;;;;;;;;;;;;;;;;;5056093;28;19927;-68
2021/12/03 17:56:13;;;;;;;;;;;;;;;;;;5036108;28;19921;-67
2021/12/03 17:58:42;;;;;;;;;;;;;;;;;;5068142;28;20392;-68
2021/12/03 18:01:12;;;;;;;;;;;;;;;;;;5058724;28;19964;-67
2021/12/03 18:03:45;;;;;;;;;;;;;;;;;;5055506;28;19925;-68
2021/12/03 18:09:06;;;;;;;;;;;;;;;;;;5049291;28;19919;-66
2021/12/03 18:11:58;;;;;;;;;;;;;;;;;;5050676;28;20404;-67
2021/12/03 18:17:30;;;;;;;;;;;;;;;;;;5051923;28;19925;-67
2021/12/03 18:44:56;;;;;;;;;;;;;;;;;;5051898;28;19920;-68
2021/12/03 18:50:27;;;;;;;;;;;;;;;;;;5049725;28;20334;-67
2021/12/03 18:53:02;;;;;;;;;;;;;;;;;;5049497;28;19925;-68
2021/12/03 18:55:34;;;;;;;;;;;;;;;;;;5048807;28;19979;-68
2021/12/03 18:58:03;;;;;;;;;;;;;;;;;;5051326;28;19964;-68
2021/12/03 19:00:31;;;;;;;;;;;;;;;;;;5050738;28;20344;-68
2021/12/03 19:03:00;;;;;;;;;;;;;;;;;;5045065;28;19925;-67
2021/12/03 19:05:33;;;;;;;;;;;;;;;;;;5043272;28;19925;-69
2021/12/03 19:08:06;;;;;;;;;;;;;;;;;;5050238;28;19986;-68
2021/12/03 19:10:34;;;;;;;;;;;;;;;;;;5052819;28;19925;-68
2021/12/03 19:13:04;;;;;;;;;;;;;;;;;;5048127;28;19929;-68
2021/12/03 19:15:32;;;;;;;;;;;;;;;;;;5050553;28;19925;-68
2021/12/03 19:18:01;;;;;;;;;;;;;;;;;;5044603;28;19968;-68
2021/12/03 19:20:32;;;;;;;;;;;;;;;;;;5046850;28;20016;-67
2021/12/03 19:22:59;;;;;;;;;;;;;;;;;;5042170;28;20367;-69
2021/12/03 19:25:26;;;;;;;;;;;;;;;;;;5041823;28;19984;-69
2021/12/03 19:27:53;;;;;;;;;;;;;;;;;;5050966;28;20015;-67
2021/12/03 19:30:21;;;;;;;;;;;;;;;;;;5049903;28;19975;-68
2021/12/03 19:32:48;;;;;;;;;;;;;;;;;;5046482;28;20025;-67
2021/12/03 19:35:15;;;;;;;;;;;;;;;;;;5044581;28;19979;-67
2021/12/03 19:37:43;;;;;;;;;;;;;;;;;;5050653;28;20768;-69
2021/12/03 19:40:11;;;;;;;;;;;;;;;;;;5050367;28;19971;-68
2021/12/03 19:42:42;;;;;;;;;;;;;;;;;;5052132;28;19932;-70
2021/12/03 19:45:13;;;;;;;;;;;;;;;;;;5052630;28;20404;-69
2021/12/03 19:47:50;;;;;;;;;;;;;;;;;;5041708;28;19972;-68
2021/12/03 19:50:21;;;;;;;;;;;;;;;;;;5041363;28;19925;-69
2021/12/03 19:52:54;;;;;;;;;;;;;;;;;;5052232;28;19935;-69
2021/12/03 19:55:21;;;;;;;;;;;;;;;;;;5048807;28;20019;-67
2021/12/03 19:57:48;;;;;;;;;;;;;;;;;;5048344;28;20007;-68
2021/12/03 20:00:15;;;;;;;;;;;;;;;;;;5046831;28;19971;-67
2021/12/03 20:02:42;;;;;;;;;;;;;;;;;;5049718;28;19970;-68
2021/12/03 20:05:09;;;;;;;;;;;;;;;;;;5045126;28;20467;-68
2021/12/03 20:07:36;;;;;;;;;;;;;;;;;;5051090;28;20013;-67
2021/12/03 20:10:08;;;;;;;;;;;;;;;;;;5047414;28;19971;-67
2021/12/03 20:12:35;;;;;;;;;;;;;;;;;;5050616;28;20381;-67
2021/12/03 20:15:06;;;;;;;;;;;;;;;;;;5050389;28;19924;-66
2021/12/03 20:17:35;;;;;;;;;;;;;;;;;;5043375;28;20010;-69
2021/12/03 20:20:03;;;;;;;;;;;;;;;;;;5053708;28;19932;-68
2021/12/03 20:22:39;;;;;;;;;;;;;;;;;;5050811;28;19928;-68
2021/12/03 20:25:34;;;;;;;;;;;;;;;;;;5051371;28;19925;-67
2021/12/03 20:28:04;;;;;;;;;;;;;;;;;;5047216;28;19980;-68
2021/12/03 20:30:38;;;;;;;;;;;;;;;;;;5047261;28;19924;-66
2021/12/03 20:33:13;;;;;;;;;;;;;;;;;;5045863;28;20019;-70
2021/12/03 20:36:06;;;;;;;;;;;;;;;;;;5048277;28;20385;-67
2021/12/03 20:38:34;;;;;;;;;;;;;;;;;;5048921;28;19929;-67
2021/12/03 20:41:03;;;;;;;;;;;;;;;;;;5048573;28;19925;-68
2021/12/03 20:43:44;;;;;;;;;;;;;;;;;;5051508;28;19929;-68
2021/12/03 20:46:32;;;;;;;;;;;;;;;;;;5046443;28;19925;-68
2021/12/03 20:54:29;;;;;;;;;;;;;;;;;;5024062;28;19974;-67
2021/12/03 21:08:01;;;;;;;;;;;;;;;;;;5050567;28;19923;-67
2021/12/03 21:10:30;;;;;;;;;;;;;;;;;;5044883;28;20324;-67
2021/12/03 21:13:07;;;;;;;;;;;;;;;;;;5047357;28;20030;-67
2021/12/03 21:15:45;;;;;;;;;;;;;;;;;;5046808;28;19929;-67
2021/12/03 21:18:23;;;;;;;;;;;;;;;;;;5050731;28;19925;-68
2021/12/03 21:20:54;;;;;;;;;;;;;;;;;;5048109;28;20303;-68
2021/12/03 21:23:23;;;;;;;;;;;;;;;;;;5048294;28;20282;-68
2021/12/03 21:25:53;;;;;;;;;;;;;;;;;;5044596;28;19932;-66
2021/12/03 21:28:33;;;;;;;;;;;;;;;;;;5047554;28;19925;-66
2021/12/03 21:31:01;;;;;;;;;;;;;;;;;;5050498;28;20312;-67
2021/12/03 21:38:01;;;;;;;;;;;;;;;;;;5049174;28;19925;-67
2021/12/03 21:39:18;;;;;;;;;;;;;;;;;;5051720;28;19995;-67
2021/12/03 21:41:45;;;;;;;;;;;;;;;;;;5053839;28;19966;-67
2021/12/03 21:44:14;;;;;;;;;;;;;;;;;;5051315;28;20296;-67
2021/12/03 21:46:41;;;;;;;;;;;;;;;;;;5051107;28;19970;-67
2021/12/03 21:49:10;;;;;;;;;;;;;;;;;;5049520;28;20314;-66
2021/12/03 21:51:37;;;;;;;;;;;;;;;;;;5052379;28;19925;-66
2021/12/03 21:54:04;;;;;;;;;;;;;;;;;;5050668;28;19925;-67
2021/12/03 21:56:31;;;;;;;;;;;;;;;;;;5049574;28;20008;-67
2021/12/03 21:58:58;;;;;;;;;;;;;;;;;;5052930;28;19968;-68
2021/12/03 22:01:25;;;;;;;;;;;;;;;;;;5051907;28;19931;-67
2021/12/03 22:03:52;;;;;;;;;;;;;;;;;;5049403;28;19925;-67
2021/12/03 22:06:21;;;;;;;;;;;;;;;;;;5052170;28;20007;-67
2021/12/03 22:08:48;;;;;;;;;;;;;;;;;;5051340;28;19932;-68
2021/12/03 22:11:15;;;;;;;;;;;;;;;;;;5051643;28;20019;-68
2021/12/03 22:13:42;;;;;;;;;;;;;;;;;;5050730;28;19987;-67
2021/12/03 22:16:09;;;;;;;;;;;;;;;;;;5048920;28;19935;-67
2021/12/03 22:18:36;;;;;;;;;;;;;;;;;;5050787;28;20035;-67
2021/12/03 22:21:03;;;;;;;;;;;;;;;;;;5052711;28;19928;-68
2021/12/03 22:23:32;;;;;;;;;;;;;;;;;;5053229;28;19931;-67
2021/12/03 22:25:59;;;;;;;;;;;;;;;;;;5048848;28;19929;-67
2021/12/03 22:28:26;;;;;;;;;;;;;;;;;;5049855;28;20142;-66
2021/12/03 22:30:53;;;;;;;;;;;;;;;;;;5051501;28;19925;-68
2021/12/03 22:33:21;;;;;;;;;;;;;;;;;;5052857;28;19935;-67
2021/12/03 22:35:48;;;;;;;;;;;;;;;;;;5049361;28;19931;-67
2021/12/03 22:38:14;;;;;;;;;;;;;;;;;;5051187;28;20024;-68
2021/12/03 22:40:42;;;;;;;;;;;;;;;;;;5050324;28;19931;-68
2021/12/03 22:43:11;;;;;;;;;;;;;;;;;;5050827;28;19947;-67
2021/12/03 22:45:43;;;;;;;;;;;;;;;;;;5045756;28;19999;-67
2021/12/03 22:48:23;;;;;;;;;;;;;;;;;;5049982;28;19934;-67
2021/12/03 22:50:51;;;;;;;;;;;;;;;;;;5051216;28;20028;-67
2021/12/03 22:53:18;;;;;;;;;;;;;;;;;;5050757;28;20836;-66
2021/12/03 22:55:45;;;;;;;;;;;;;;;;;;5052454;28;20024;-67
2021/12/03 22:58:13;;;;;;;;;;;;;;;;;;5044876;28;19933;-67
2021/12/03 23:00:40;;;;;;;;;;;;;;;;;;5049910;28;19929;-69
2021/12/03 23:03:07;;;;;;;;;;;;;;;;;;5047828;28;20300;-68
2021/12/03 23:05:34;;;;;;;;;;;;;;;;;;5051193;28;19925;-67
2021/12/03 23:08:00;;;;;;;;;;;;;;;;;;5050294;28;19963;-67
2021/12/03 23:10:27;;;;;;;;;;;;;;;;;;5047886;28;20364;-67
2021/12/03 23:12:54;;;;;;;;;;;;;;;;;;5048111;28;19925;-66
2021/12/03 23:15:21;;;;;;;;;;;;;;;;;;5047323;28;19925;-66
2021/12/03 23:17:48;;;;;;;;;;;;;;;;;;5047726;28;19929;-67
2021/12/03 23:20:15;;;;;;;;;;;;;;;;;;5051731;28;20015;-66
2021/12/03 23:22:42;;;;;;;;;;;;;;;;;;5050036;28;20023;-67
2021/12/03 23:25:09;;;;;;;;;;;;;;;;;;5049790;28;19932;-66
2021/12/03 23:27:36;;;;;;;;;;;;;;;;;;5047929;28;20631;-66
2021/12/03 23:30:03;;;;;;;;;;;;;;;;;;5050343;28;19936;-67
2021/12/03 23:32:30;;;;;;;;;;;;;;;;;;5045928;28;19925;-66
2021/12/03 23:34:57;;;;;;;;;;;;;;;;;;5048927;28;20389;-69
2021/12/03 23:37:24;;;;;;;;;;;;;;;;;;5049614;28;20381;-69
2021/12/03 23:39:51;;;;;;;;;;;;;;;;;;5047977;28;20289;-70
2021/12/03 23:42:18;;;;;;;;;;;;;;;;;;5049168;28;19925;-69
2021/12/03 23:44:47;;;;;;;;;;;;;;;;;;5050809;28;19933;-70